Time;durP1;ratioP1;P1;durP2;ratioP2;P2;SDS_P1;SDS_P2;PMS_P1;PMS_P2;Temp;Humidity;BMP_temperature;BMP_pressure;BME280_temperature;BME280_humidity;BME280_pressure;Samples;Min_cycle;Max_cycle;Signal;HPM_P1;HPM_P2
2023/06/01 00:01:33;;;;;;;16.08;10.93;;;15.50;55.60;;;;;;5100090;28;20024;-68
2023/06/01 00:38:42;;;;;;;16.58;10.82;;;14.80;73.70;;;;;;5087657;28;20085;-68
2023/06/01 00:41:08;;;;;;;15.18;11.10;;;14.80;75.50;;;;;;5098778;28;20044;-67
2023/06/01 00:43:34;;;;;;;21.55;12.10;;;14.80;73.80;;;;;;5099140;28;20315;-68
2023/06/01 00:46:00;;;;;;;18.42;12.48;;;14.90;73.00;;;;;;5099067;28;20046;-67
2023/06/01 00:48:26;;;;;;;18.75;11.70;;;14.80;69.80;;;;;;5099133;28;20099;-68
2023/06/01 00:50:52;;;;;;;16.13;10.82;;;14.80;69.60;;;;;;5081463;28;20085;-68
2023/06/01 00:53:19;;;;;;;17.88;11.70;;;14.80;69.70;;;;;;5099092;28;20040;-68
2023/06/01 00:55:46;;;;;;;17.23;11.52;;;14.70;72.10;;;;;;5098893;28;20373;-68
2023/06/01 00:58:15;;;;;;;18.13;12.40;;;14.70;76.10;;;;;;5081402;28;20043;-68
2023/06/01 01:00:41;;;;;;;19.80;12.60;;;14.60;77.30;;;;;;5099068;28;20032;-68
2023/06/01 01:03:08;;;;;;;18.30;12.20;;;14.60;77.90;;;;;;5081345;28;20032;-68
2023/06/01 01:05:39;;;;;;;18.95;12.43;;;14.50;77.60;;;;;;5098841;28;20092;-68
2023/06/01 01:08:37;;;;;;;16.95;12.25;;;14.50;78.40;;;;;;5081217;28;20024;-69
2023/06/01 01:11:11;;;;;;;17.48;11.88;;;14.30;84.40;;;;;;5054545;28;20368;-69
2023/06/01 01:14:19;;;;;;;21.35;12.52;;;14.40;81.30;;;;;;5097960;28;20059;-68
2023/06/01 01:16:48;;;;;;;18.50;12.57;;;14.40;80.90;;;;;;5080474;28;20040;-68
2023/06/01 01:19:24;;;;;;;21.95;12.85;;;14.40;79.70;;;;;;5097835;28;20059;-68
2023/06/01 01:22:07;;;;;;;18.30;12.57;;;14.20;87.80;;;;;;5098559;28;20059;-69
2023/06/01 01:25:18;;;;;;;20.45;12.57;;;14.20;89.00;;;;;;5097928;28;20119;-68
2023/06/01 01:28:06;;;;;;;23.60;13.52;;;14.20;86.70;;;;;;5097862;28;20052;-68
2023/06/01 01:30:35;;;;;;;22.25;13.73;;;14.20;88.90;;;;;;5097676;28;20043;-69
2023/06/01 01:33:03;;;;;;;21.23;12.07;;;14.10;89.20;;;;;;5097524;28;20024;-69
2023/06/01 01:35:30;;;;;;;18.88;11.98;;;14.20;88.30;;;;;;5080954;28;20035;-68
2023/06/01 01:37:56;;;;;;;19.40;12.70;;;14.10;88.60;;;;;;5080340;28;20072;-68
2023/06/01 01:40:24;;;;;;;19.85;12.85;;;14.00;89.40;;;;;;5064622;28;20043;-69
2023/06/01 01:42:51;;;;;;;21.48;12.73;;;13.90;91.70;;;;;;5097517;28;20036;-69
2023/06/01 01:45:17;;;;;;;21.80;12.88;;;13.80;92.60;;;;;;5098090;28;20093;-68
2023/06/01 01:47:56;;;;;;;19.58;12.82;;;13.80;93.20;;;;;;5097438;28;20456;-69
2023/06/01 01:50:30;;;;;;;21.73;13.07;;;13.80;94.90;;;;;;5097436;28;20281;-68
2023/06/01 01:52:56;;;;;;;19.80;12.25;;;13.80;92.60;;;;;;5097178;28;20023;-68
2023/06/01 01:55:23;;;;;;;19.35;13.23;;;13.60;94.50;;;;;;5080329;28;20150;-69
2023/06/01 01:57:55;;;;;;;18.75;12.90;;;13.50;95.80;;;;;;5097145;28;20035;-68
2023/06/01 02:00:22;;;;;;;24.30;13.27;;;13.60;95.00;;;;;;5080219;28;20449;-69
2023/06/01 02:02:48;;;;;;;19.60;12.75;;;13.50;95.00;;;;;;5063177;28;20418;-68
2023/06/01 02:05:15;;;;;;;18.77;13.13;;;13.60;95.50;;;;;;5096892;28;20129;-69
2023/06/01 02:07:41;;;;;;;19.33;13.30;;;13.60;94.40;;;;;;5080110;28;20043;-68
2023/06/01 02:10:07;;;;;;;18.65;13.52;;;13.70;92.90;;;;;;5096844;28;20031;-68
2023/06/01 02:12:33;;;;;;;21.08;13.52;;;13.50;93.60;;;;;;5096727;28;20119;-68
2023/06/01 02:14:59;;;;;;;21.65;12.93;;;13.50;94.20;;;;;;5079881;28;20229;-69
2023/06/01 02:17:26;;;;;;;21.08;13.25;;;13.40;94.90;;;;;;5096688;28;20287;-68
2023/06/01 02:19:52;;;;;;;21.10;12.90;;;13.40;95.80;;;;;;5079896;28;20047;-69
2023/06/01 02:22:18;;;;;;;24.17;12.60;;;13.40;94.70;;;;;;5079876;28;20048;-69
2023/06/01 02:24:45;;;;;;;21.00;12.88;;;13.40;93.30;;;;;;5096626;28;20073;-68
2023/06/01 02:27:11;;;;;;;19.20;13.15;;;13.20;95.60;;;;;;5096582;28;20032;-68
2023/06/01 02:29:37;;;;;;;23.38;12.95;;;13.20;95.90;;;;;;5046600;28;20035;-69
2023/06/01 02:32:03;;;;;;;22.90;13.23;;;13.20;95.70;;;;;;5097824;28;20024;-69
2023/06/01 02:34:28;;;;;;;20.90;13.48;;;13.20;96.00;;;;;;5096627;28;20096;-68
2023/06/01 02:36:55;;;;;;;21.67;12.82;;;13.20;95.60;;;;;;5096521;28;20353;-69
2023/06/01 02:39:23;;;;;;;21.17;13.90;;;13.20;94.70;;;;;;5097134;28;20154;-68
2023/06/01 02:41:49;;;;;;;17.63;13.82;;;13.20;94.70;;;;;;5079585;28;20046;-69
2023/06/01 02:44:15;;;;;;;19.77;12.90;;;13.20;94.00;;;;;;5079631;28;20032;-69
2023/06/01 02:46:41;;;;;;;18.48;12.82;;;13.10;95.10;;;;;;5096274;28;20024;-69
2023/06/01 02:49:07;;;;;;;20.90;13.23;;;13.10;95.90;;;;;;5079484;28;20031;-70
2023/06/01 02:51:33;;;;;;;19.98;12.68;;;12.90;96.30;;;;;;5097519;28;20024;-70
2023/06/01 02:54:10;;;;;;;21.90;13.48;;;13.00;96.30;;;;;;5081118;28;20024;-69
2023/06/01 02:56:35;;;;;;;20.60;13.23;;;13.10;94.80;;;;;;5062861;28;20169;-69
2023/06/01 02:59:13;;;;;;;18.52;12.73;;;13.00;96.50;;;;;;5081101;28;20028;-68
2023/06/01 03:01:49;;;;;;;21.02;13.07;;;12.90;96.70;;;;;;5096246;28;20039;-69
2023/06/01 03:04:15;;;;;;;23.92;14.27;;;12.80;96.20;;;;;;5079451;28;20047;-69
2023/06/01 03:06:43;;;;;;;18.63;13.23;;;12.80;97.90;;;;;;5079411;28;20124;-69
2023/06/01 03:09:20;;;;;;;19.55;13.75;;;12.70;98.10;;;;;;5096997;28;20123;-69
2023/06/01 03:11:51;;;;;;;18.95;13.70;;;12.80;97.70;;;;;;5096169;28;20125;-67
2023/06/01 03:14:17;;;;;;;19.27;13.48;;;12.80;96.80;;;;;;5097961;28;20047;-67
2023/06/01 03:16:43;;;;;;;21.35;13.85;;;12.80;95.80;;;;;;5100219;28;20288;-67
2023/06/01 03:19:19;;;;;;;26.02;14.13;;;12.80;96.10;;;;;;5100236;28;20263;-68
2023/06/01 03:21:48;;;;;;;20.45;13.35;;;12.80;95.70;;;;;;5083849;28;20093;-68
2023/06/01 03:24:18;;;;;;;21.13;12.80;;;12.90;95.50;;;;;;5067525;28;20032;-70
2023/06/01 03:26:43;;;;;;;20.17;13.20;;;12.80;95.00;;;;;;5083182;28;20328;-69
2023/06/01 03:29:09;;;;;;;20.35;13.60;;;12.80;95.00;;;;;;5099970;28;20064;-69
2023/06/01 03:31:36;;;;;;;19.42;13.00;;;12.70;95.80;;;;;;5066662;28;20043;-69
2023/06/01 03:34:02;;;;;;;20.50;13.45;;;12.70;96.00;;;;;;5100678;28;20029;-69
2023/06/01 03:36:28;;;;;;;19.65;13.60;;;12.60;97.60;;;;;;5083031;28;20032;-69
2023/06/01 03:38:55;;;;;;;18.02;13.43;;;12.70;97.00;;;;;;5099560;28;20111;-69
2023/06/01 03:41:23;;;;;;;23.48;12.95;;;12.70;96.00;;;;;;5083055;28;20036;-69
2023/06/01 03:43:49;;;;;;;21.10;13.52;;;12.70;95.40;;;;;;5049812;28;20023;-69
2023/06/01 03:46:16;;;;;;;22.88;14.23;;;12.60;96.30;;;;;;5082633;28;20039;-69
2023/06/01 03:48:41;;;;;;;21.75;14.02;;;12.60;96.10;;;;;;5082565;28;20024;-69
2023/06/01 03:51:08;;;;;;;17.80;13.63;;;12.70;95.40;;;;;;5082909;28;20124;-69
2023/06/01 03:53:34;;;;;;;20.35;13.95;;;12.80;95.50;;;;;;5082693;28;20115;-67
2023/06/01 03:56:00;;;;;;;22.05;13.55;;;12.70;96.00;;;;;;5100335;28;20119;-69
2023/06/01 03:58:44;;;;;;;21.75;13.90;;;12.80;95.70;;;;;;5099450;28;20028;-67
2023/06/01 04:01:19;;;;;;;23.55;14.68;;;12.70;96.70;;;;;;5083208;28;20056;-69
2023/06/01 04:03:48;;;;;;;25.35;15.02;;;12.70;96.50;;;;;;5099658;28;20387;-68
2023/06/01 04:06:17;;;;;;;22.67;14.43;;;12.80;95.10;;;;;;5082408;28;20334;-68
2023/06/01 04:08:49;;;;;;;23.35;14.18;;;12.70;95.40;;;;;;5099317;28;20122;-68
2023/06/01 04:11:16;;;;;;;25.80;14.35;;;12.70;96.30;;;;;;5099313;28;20032;-68
2023/06/01 04:13:43;;;;;;;19.52;13.65;;;12.80;94.80;;;;;;5099134;28;20110;-68
2023/06/01 04:16:10;;;;;;;23.95;14.02;;;12.80;93.90;;;;;;5099246;28;20028;-68
2023/06/01 04:18:36;;;;;;;19.70;12.93;;;12.90;93.20;;;;;;5082182;28;20174;-68
2023/06/01 04:21:06;;;;;;;20.08;13.50;;;12.90;92.10;;;;;;5099917;28;20047;-69
2023/06/01 04:23:33;;;;;;;23.35;14.27;;;12.90;91.50;;;;;;5082215;28;20430;-69
2023/06/01 04:26:00;;;;;;;19.77;14.52;;;12.90;92.40;;;;;;5081773;28;20039;-68
2023/06/01 04:28:27;;;;;;;20.98;13.68;;;13.00;91.00;;;;;;5065908;28;20047;-68
2023/06/01 04:30:54;;;;;;;22.30;13.73;;;13.00;87.30;;;;;;5099545;28;20319;-68
2023/06/01 04:33:24;;;;;;;22.60;14.77;;;13.00;88.50;;;;;;5082663;28;20116;-68
2023/06/01 04:35:55;;;;;;;20.58;14.73;;;13.00;88.70;;;;;;5098917;28;20028;-68
2023/06/01 04:38:26;;;;;;;21.15;13.52;;;13.00;86.90;;;;;;5098198;28;20056;-68
2023/06/01 04:40:55;;;;;;;23.10;14.52;;;13.10;86.40;;;;;;5080700;28;20025;-68
2023/06/01 04:43:23;;;;;;;20.55;14.05;;;12.90;90.10;;;;;;5097440;28;20040;-67
2023/06/01 04:45:49;;;;;;;21.33;14.30;;;13.00;90.40;;;;;;5080867;28;20055;-68
2023/06/01 04:48:16;;;;;;;22.67;14.40;;;13.00;88.60;;;;;;5080771;28;20422;-69
2023/06/01 04:50:55;;;;;;;19.55;13.90;;;13.20;86.10;;;;;;5097601;28;20307;-69
2023/06/01 04:53:21;;;;;;;22.40;13.65;;;13.40;81.60;;;;;;5097275;28;20025;-69
2023/06/01 04:55:50;;;;;;;23.33;14.20;;;13.40;78.80;;;;;;5097298;28;20134;-70
2023/06/01 04:58:16;;;;;;;19.42;13.85;;;13.40;80.70;;;;;;5080552;28;20035;-68
2023/06/01 05:00:41;;;;;;;21.25;12.98;;;13.50;75.70;;;;;;5097852;28;20327;-69
2023/06/01 05:03:07;;;;;;;19.52;12.63;;;13.50;75.80;;;;;;5097207;28;20069;-69
2023/06/01 05:05:34;;;;;;;17.35;12.25;;;13.60;72.60;;;;;;5096928;28;20150;-69
2023/06/01 05:07:59;;;;;;;21.95;12.57;;;13.60;70.80;;;;;;5096707;28;20442;-69
2023/06/01 05:10:27;;;;;;;22.75;12.70;;;13.90;66.50;;;;;;5080345;28;20028;-69
2023/06/01 05:12:53;;;;;;;20.20;13.35;;;14.10;60.00;;;;;;5096872;28;20308;-69
2023/06/01 05:15:19;;;;;;;21.85;12.88;;;14.20;55.50;;;;;;5096890;28;20085;-69
2023/06/01 05:17:47;;;;;;;19.23;12.43;;;14.30;52.20;;;;;;5079916;28;20081;-69
2023/06/01 05:20:15;;;;;;;19.23;13.75;;;14.30;49.70;;;;;;5080789;28;20366;-69
2023/06/01 05:22:44;;;;;;;19.77;13.75;;;14.30;44.00;;;;;;5096885;28;20028;-69
2023/06/01 05:25:10;;;;;;;20.00;13.45;;;14.30;46.90;;;;;;5080175;28;20407;-69
2023/06/01 05:27:37;;;;;;;20.55;13.25;;;14.20;52.20;;;;;;5096777;28;20525;-69
2023/06/01 05:30:04;;;;;;;21.25;14.02;;;14.20;44.50;;;;;;5096750;28;20032;-69
2023/06/01 05:32:30;;;;;;;17.13;12.70;;;14.20;45.20;;;;;;5080284;28;20396;-68
2023/06/01 05:35:02;;;;;;;21.47;13.47;;;14.30;46.30;;;;;;5080661;28;20065;-68
2023/06/01 05:37:28;;;;;;;23.23;13.93;;;14.40;41.40;;;;;;5095922;28;20373;-69
2023/06/01 05:39:53;;;;;;;22.45;13.10;;;14.60;34.60;;;;;;5039088;28;1180161;-68
2023/06/01 05:42:19;;;;;;;23.33;13.18;;;14.80;28.90;;;;;;5097513;28;20296;-68
2023/06/01 05:44:45;;;;;;;15.98;11.80;;;14.80;27.20;;;;;;5080593;28;20049;-69
2023/06/01 05:47:11;;;;;;;18.95;12.13;;;14.60;20.50;;;;;;5097276;28;20051;-68
2023/06/01 05:49:37;;;;;;;19.67;12.38;;;14.40;29.30;;;;;;5097299;28;20051;-68
2023/06/01 05:52:05;;;;;;;18.20;11.77;;;14.30;34.60;;;;;;5080486;28;20048;-69
2023/06/01 05:54:31;;;;;;;18.92;11.35;;;14.40;31.40;;;;;;5097115;28;20043;-69
2023/06/01 05:56:57;;;;;;;18.77;12.35;;;14.30;31.40;;;;;;5080327;28;20036;-67
2023/06/01 05:59:23;;;;;;;18.42;12.05;;;14.40;24.70;;;;;;5080421;28;20127;-67
2023/06/01 06:01:49;;;;;;;19.10;12.88;;;14.50;22.70;;;;;;5097100;28;20060;-69
2023/06/01 06:04:17;;;;;;;20.10;12.10;;;14.60;21.70;;;;;;5096993;28;20046;-69
2023/06/01 06:06:43;;;;;;;15.52;11.30;;;14.50;14.20;;;;;;5096947;28;20028;-69
2023/06/01 06:09:10;;;;;;;18.13;10.88;;;14.20;16.30;;;;;;5097743;28;20035;-69
2023/06/01 06:11:36;;;;;;;15.57;11.05;;;14.10;26.10;;;;;;5097755;28;20027;-68
2023/06/01 06:14:01;;;;;;;14.77;10.85;;;14.10;25.00;;;;;;5080142;28;20020;-69
2023/06/01 06:16:27;;;;;;;16.10;10.18;;;14.30;18.40;;;;;;5097692;28;20028;-70
2023/06/01 06:18:53;;;;;;;13.13;9.80;;;14.30;13.70;;;;;;5097551;28;20039;-69
2023/06/01 06:21:21;;;;;;;14.98;9.50;;;14.10;22.10;;;;;;5097933;28;20031;-68
2023/06/01 06:23:49;;;;;;;15.75;9.43;;;14.10;29.00;;;;;;5096963;28;20028;-70
2023/06/01 06:26:15;;;;;;;14.35;9.77;;;14.20;15.60;;;;;;5096753;28;20032;-68
2023/06/01 06:28:40;;;;;;;16.25;9.48;;;13.90;25.00;;;;;;5096755;28;20035;-67
2023/06/01 06:31:06;;;;;;;12.82;9.20;;;14.20;43.00;;;;;;5079896;28;20307;-70
2023/06/01 06:33:32;;;;;;;13.75;9.77;;;14.60;19.70;;;;;;5097442;28;20038;-71
2023/06/01 06:35:58;;;;;;;14.73;9.55;;;14.80;9.80;;;;;;5097587;28;20466;-71
2023/06/01 06:38:24;;;;;;;15.65;9.13;;;14.90;1.00;;;;;;5096625;28;20109;-71
2023/06/01 06:40:51;;;;;;;13.70;9.38;;;15.10;1.00;;;;;;5096821;28;20039;-71
2023/06/01 06:43:17;;;;;;;12.27;8.73;;;15.10;1.00;;;;;;5097104;28;20043;-71
2023/06/01 06:45:43;;;;;;;11.38;8.63;;;15.10;1.00;;;;;;5096549;28;20036;-71
2023/06/01 06:48:09;;;;;;;13.48;8.75;;;15.30;1.00;;;;;;5097172;28;20028;-70
2023/06/01 06:50:36;;;;;;;11.70;8.35;;;15.60;1.00;;;;;;5097121;28;20047;-71
2023/06/01 06:53:03;;;;;;;10.70;8.35;;;16.00;1.00;;;;;;5079931;28;20036;-71
2023/06/01 06:55:29;;;;;;;10.55;7.78;;;16.10;1.00;;;;;;5079773;28;20031;-71
2023/06/01 06:57:55;;;;;;;11.25;7.95;;;16.10;1.00;;;;;;5097012;28;20032;-71
2023/06/01 07:00:22;;;;;;;14.40;9.48;;;15.90;1.00;;;;;;5096278;28;20164;-71
2023/06/01 07:02:48;;;;;;;14.35;8.48;;;16.00;1.00;;;;;;5097402;28;20043;-71
2023/06/01 07:05:14;;;;;;;14.30;8.05;;;16.00;1.00;;;;;;5096273;28;20395;-72
2023/06/01 07:07:41;;;;;;;11.27;8.05;;;15.70;1.00;;;;;;5079343;28;20024;-71
2023/06/01 07:10:07;;;;;;;10.30;8.20;;;15.90;1.00;;;;;;5097178;28;20042;-70
2023/06/01 07:12:33;;;;;;;11.70;8.10;;;15.80;1.00;;;;;;5097475;28;20089;-71
2023/06/01 07:15:00;;;;;;;11.25;8.05;;;15.80;1.00;;;;;;5096897;28;20093;-70
2023/06/01 07:17:26;;;;;;;14.00;8.93;;;15.80;1.00;;;;;;5097369;28;20036;-70
2023/06/01 07:19:51;;;;;;;11.18;9.05;;;15.70;1.00;;;;;;5079239;28;20038;-71
2023/06/01 07:22:17;;;;;;;12.75;8.80;;;15.80;1.00;;;;;;5097257;28;20048;-70
2023/06/01 07:24:44;;;;;;;15.30;9.48;;;15.70;1.00;;;;;;5079709;28;20063;-70
2023/06/01 07:27:11;;;;;;;13.30;8.75;;;15.60;1.00;;;;;;5046252;28;20036;-71
2023/06/01 07:29:36;;;;;;;11.52;8.68;;;15.50;1.00;;;;;;5096849;28;20063;-71
2023/06/01 07:32:03;;;;;;;15.02;8.95;;;15.40;1.00;;;;;;5096030;28;20063;-71
2023/06/01 07:34:28;;;;;;;12.38;8.90;;;15.50;1.00;;;;;;5095983;28;20131;-71
2023/06/01 07:36:58;;;;;;;12.98;8.80;;;15.40;1.00;;;;;;5062508;28;20119;-71
2023/06/01 07:39:25;;;;;;;12.07;8.90;;;15.50;1.00;;;;;;5096579;28;20056;-71
2023/06/01 07:41:53;;;;;;;10.60;7.75;;;15.70;1.00;;;;;;5096125;28;20089;-72
2023/06/01 07:44:20;;;;;;;15.93;9.27;;;15.80;1.00;;;;;;5095962;28;20295;-69
2023/06/01 07:46:46;;;;;;;13.43;8.93;;;15.60;1.00;;;;;;5096716;28;20055;-70
2023/06/01 07:49:13;;;;;;;12.13;8.80;;;15.70;1.00;;;;;;5079213;28;20028;-71
2023/06/01 07:51:43;;;;;;;11.93;8.45;;;15.60;1.00;;;;;;5096026;28;20138;-70
2023/06/01 07:54:09;;;;;;;11.75;8.18;;;15.60;1.00;;;;;;5095782;28;20047;-72
2023/06/01 07:56:35;;;;;;;12.20;8.38;;;15.70;1.00;;;;;;5096721;28;20181;-71
2023/06/01 07:59:01;;;;;;;13.75;8.07;;;15.70;1.00;;;;;;5095818;28;20040;-70
2023/06/01 08:01:27;;;;;;;10.23;8.25;;;15.50;1.00;;;;;;5099311;28;20123;-72
2023/06/01 08:03:55;;;;;;;12.82;9.05;;;15.60;1.00;;;;;;5100259;28;20097;-72
2023/06/01 08:06:23;;;;;;;14.93;9.27;;;15.30;1.00;;;;;;5100149;28;20040;-71
2023/06/01 08:08:49;;;;;;;21.80;8.60;;;15.40;1.00;;;;;;5099488;28;20115;-70
2023/06/01 08:11:18;;;;;;;16.13;8.30;;;15.70;1.00;;;;;;5100122;28;20028;-70
2023/06/01 08:13:45;;;;;;;14.00;8.35;;;16.00;1.00;;;;;;5100009;28;20105;-70
2023/06/01 08:16:14;;;;;;;11.50;8.75;;;16.10;1.00;;;;;;5099259;28;20089;-70
2023/06/01 08:18:40;;;;;;;12.50;8.18;;;16.10;1.00;;;;;;5099309;28;20035;-71
2023/06/01 08:21:08;;;;;;;15.63;9.20;;;16.00;1.00;;;;;;5099823;28;20044;-71
2023/06/01 08:23:35;;;;;;;14.20;9.15;;;16.20;1.00;;;;;;5099247;28;20102;-70
2023/06/01 08:26:01;;;;;;;11.52;8.80;;;16.10;1.00;;;;;;5082060;28;20060;-71
2023/06/01 08:28:27;;;;;;;11.68;9.45;;;16.30;1.00;;;;;;5099758;28;20078;-70
2023/06/01 08:30:53;;;;;;;12.85;8.57;;;16.30;1.00;;;;;;5082017;28;20411;-71
2023/06/01 08:33:18;;;;;;;12.85;9.18;;;16.40;1.00;;;;;;5098908;28;20032;-70
2023/06/01 08:35:44;;;;;;;15.40;9.75;;;16.50;1.00;;;;;;5099193;28;20036;-69
2023/06/01 08:38:10;;;;;;;18.88;9.82;;;16.70;1.00;;;;;;5082232;28;20048;-69
2023/06/01 08:40:36;;;;;;;12.90;9.27;;;16.90;1.00;;;;;;5098972;28;20107;-69
2023/06/01 08:43:01;;;;;;;16.33;9.70;;;17.00;1.00;;;;;;5099152;28;20028;-69
2023/06/01 08:45:29;;;;;;;15.55;10.00;;;17.00;1.00;;;;;;5099357;28;20134;-68
2023/06/01 08:47:55;;;;;;;15.43;10.05;;;17.10;1.00;;;;;;5098754;28;20141;-69
2023/06/01 08:50:22;;;;;;;16.23;9.95;;;17.10;1.00;;;;;;5099586;28;20415;-70
2023/06/01 08:52:53;;;;;;;12.15;9.70;;;17.30;1.00;;;;;;5081946;28;20314;-70
2023/06/01 08:55:19;;;;;;;13.00;9.63;;;17.40;1.00;;;;;;5099628;28;20120;-68
2023/06/01 08:57:45;;;;;;;16.60;10.13;;;17.50;1.00;;;;;;5081575;28;20131;-68
2023/06/01 09:00:13;;;;;;;18.75;10.40;;;17.60;1.00;;;;;;5099125;28;20119;-69
2023/06/01 09:02:39;;;;;;;13.90;10.30;;;17.80;1.00;;;;;;5098270;28;20117;-70
2023/06/01 09:05:06;;;;;;;15.77;11.02;;;17.90;1.00;;;;;;5081673;28;20032;-70
2023/06/01 09:07:32;;;;;;;16.55;10.70;;;17.50;1.00;;;;;;5098911;28;20135;-70
2023/06/01 09:09:57;;;;;;;20.48;11.43;;;17.60;1.00;;;;;;5098877;28;20099;-69
2023/06/01 09:12:33;;;;;;;16.75;10.82;;;17.70;1.00;;;;;;5097548;28;20031;-70
2023/06/01 09:15:18;;;;;;;14.80;11.05;;;17.90;1.00;;;;;;5097920;28;20508;-71
2023/06/01 09:17:48;;;;;;;18.88;11.30;;;18.00;1.00;;;;;;5098065;28;20052;-71
2023/06/01 09:20:27;;;;;;;13.48;10.27;;;18.10;1.00;;;;;;5097929;28;20099;-70
2023/06/01 09:22:54;;;;;;;12.93;10.30;;;18.20;1.00;;;;;;5098549;28;20126;-69
2023/06/01 09:25:28;;;;;;;14.95;10.13;;;18.20;1.00;;;;;;5097860;28;20028;-70
2023/06/01 09:27:56;;;;;;;13.40;10.07;;;18.20;1.00;;;;;;5097881;28;20031;-69
2023/06/01 09:30:24;;;;;;;19.23;10.98;;;18.10;1.00;;;;;;5097766;28;20024;-69
2023/06/01 09:32:52;;;;;;;15.68;10.73;;;18.30;1.00;;;;;;5097645;28;20105;-69
2023/06/01 09:35:41;;;;;;;14.50;10.88;;;18.20;1.00;;;;;;5098762;28;20043;-69
2023/06/01 09:38:08;;;;;;;21.30;10.90;;;18.40;1.00;;;;;;5098237;28;20058;-70
2023/06/01 09:40:35;;;;;;;21.55;12.13;;;18.40;1.00;;;;;;5097599;28;20057;-69
2023/06/01 09:43:02;;;;;;;14.95;9.93;;;18.60;1.00;;;;;;5097328;28;20123;-70
2023/06/01 09:45:31;;;;;;;16.50;10.25;;;18.80;1.00;;;;;;5097704;28;20063;-69
2023/06/01 09:48:22;;;;;;;17.02;11.05;;;18.80;99.90;;;;;;5098124;28;20080;-70
2023/06/01 09:50:48;;;;;;;16.58;11.48;;;18.80;1.00;;;;;;5098044;28;20027;-69
2023/06/01 09:53:15;;;;;;;14.60;11.23;;;18.90;1.00;;;;;;5098063;28;20388;-70
2023/06/01 09:56:01;;;;;;;17.50;11.88;;;19.00;1.00;;;;;;5098251;28;20028;-70
2023/06/01 09:58:27;;;;;;;17.63;12.68;;;18.90;99.90;;;;;;5097261;28;20318;-68
2023/06/01 10:00:54;;;;;;;16.67;10.30;;;19.20;99.90;;;;;;5097116;28;20295;-70
2023/06/01 10:03:22;;;;;;;17.70;12.07;;;19.20;99.90;;;;;;5097174;28;20032;-68
2023/06/01 10:05:48;;;;;;;17.63;12.02;;;19.50;99.90;;;;;;5096708;28;20020;-68
2023/06/01 10:08:16;;;;;;;15.98;11.52;;;19.50;99.90;;;;;;5097573;28;20031;-68
2023/06/01 10:10:45;;;;;;;15.07;11.15;;;19.50;99.90;;;;;;5097606;28;20348;-68
2023/06/01 10:13:12;;;;;;;14.25;10.65;;;19.60;99.90;;;;;;5096934;28;20081;-68
2023/06/01 10:15:37;;;;;;;16.60;11.45;;;19.90;99.90;;;;;;5096912;28;20043;-68
2023/06/01 10:18:05;;;;;;;18.48;11.05;;;19.90;1.00;;;;;;5098194;28;20310;-69
2023/06/01 10:20:35;;;;;;;18.38;11.63;;;20.00;1.00;;;;;;5097530;28;20032;-69
2023/06/01 10:23:02;;;;;;;16.45;11.23;;;20.20;1.00;;;;;;5097193;28;20087;-68
2023/06/01 10:25:43;;;;;;;15.43;11.30;;;20.20;1.00;;;;;;5097339;28;20067;-69
2023/06/01 10:28:11;;;;;;;19.85;11.57;;;20.20;1.00;;;;;;5097422;28;20085;-68
2023/06/01 10:30:37;;;;;;;17.63;11.45;;;20.50;1.00;;;;;;5097396;28;20027;-68
2023/06/01 10:33:03;;;;;;;16.13;10.38;;;20.70;99.90;;;;;;5097222;28;20383;-69
2023/06/01 10:35:29;;;;;;;15.27;10.10;;;20.70;99.90;;;;;;5063223;28;20028;-69
2023/06/01 10:38:12;;;;;;;16.38;10.73;;;20.90;1.00;;;;;;5097087;28;20112;-68
2023/06/01 10:40:46;;;;;;;12.43;9.88;;;21.00;99.90;;;;;;5096924;28;20111;-69
2023/06/01 10:43:37;;;;;;;18.60;11.50;;;20.90;1.00;;;;;;5096661;28;20382;-69
2023/06/01 10:46:23;;;;;;;13.73;10.48;;;21.00;99.90;;;;;;5096285;28;20032;-68
2023/06/01 10:48:52;;;;;;;14.40;9.65;;;21.20;99.90;;;;;;5082293;28;20097;-69
2023/06/01 10:51:20;;;;;;;15.20;10.35;;;21.50;99.90;;;;;;5097360;28;20027;-70
2023/06/01 10:53:45;;;;;;;15.65;11.10;;;21.60;99.90;;;;;;5097282;28;20032;-70
2023/06/01 10:56:24;;;;;;;15.02;9.57;;;21.90;99.90;;;;;;5097247;28;20111;-68
2023/06/01 10:59:08;;;;;;;11.73;8.93;;;22.20;1.00;;;;;;5097239;28;20028;-69
2023/06/01 11:01:43;;;;;;;13.88;9.75;;;22.60;1.00;;;;;;5096369;28;20085;-70
2023/06/01 11:04:09;;;;;;;13.35;9.23;;;23.00;99.90;;;;;;5097153;28;20032;-68
2023/06/01 11:06:37;;;;;;;13.65;10.15;;;24.20;99.90;;;;;;5097558;28;20058;-69
2023/06/01 11:09:10;;;;;;;16.00;9.60;;;25.60;1.00;;;;;;5096238;28;20024;-69
2023/06/01 11:11:48;;;;;;;12.73;8.98;;;27.30;1.00;;;;;;5097031;28;20032;-68
2023/06/01 11:14:15;;;;;;;12.95;8.18;;;29.10;1.00;;;;;;5096290;28;20074;-70
2023/06/01 11:16:40;;;;;;;12.85;9.30;;;29.60;1.00;;;;;;5096972;28;20043;-70
2023/06/01 11:19:08;;;;;;;12.35;8.40;;;29.50;1.00;;;;;;5096198;28;20422;-70
2023/06/01 11:21:40;;;;;;;10.48;7.63;;;28.30;1.00;;;;;;5096837;28;20032;-70
2023/06/01 11:24:11;;;;;;;12.23;9.25;;;28.40;1.00;;;;;;5097071;28;20063;-69
2023/06/01 11:26:43;;;;;;;13.07;9.20;;;29.50;1.00;;;;;;5096903;28;20032;-66
2023/06/01 11:29:16;;;;;;;11.68;8.82;;;30.40;1.00;;;;;;5096856;28;20073;-70
2023/06/01 11:31:52;;;;;;;12.18;8.23;;;30.60;99.90;;;;;;5095994;28;20077;-69
2023/06/01 11:34:20;;;;;;;8.88;7.40;;;30.60;99.90;;;;;;5097650;28;20099;-70
2023/06/01 11:36:51;;;;;;;10.25;7.95;;;31.50;99.90;;;;;;5100229;28;20303;-69
2023/06/01 11:39:22;;;;;;;13.55;7.40;;;31.30;99.90;;;;;;5100659;28;20327;-70
2023/06/01 11:41:53;;;;;;;9.98;7.78;;;31.70;99.90;;;;;;5101067;28;20032;-68
2023/06/01 11:44:19;;;;;;;13.15;9.10;;;32.50;99.90;;;;;;5099953;28;20028;-68
2023/06/01 11:46:53;;;;;;;9.70;8.38;;;32.00;99.90;;;;;;5100558;28;20074;-69
2023/06/01 11:49:19;;;;;;;11.02;7.75;;;33.00;99.90;;;;;;5099907;28;20097;-69
2023/06/01 11:51:45;;;;;;;11.65;8.63;;;32.00;99.90;;;;;;5100649;28;20024;-69
2023/06/01 11:54:11;;;;;;;8.35;7.30;;;33.30;99.90;;;;;;5100407;28;20047;-69
2023/06/01 11:56:41;;;;;;;12.38;7.47;;;33.40;99.90;;;;;;5082965;28;20303;-67
2023/06/01 11:59:11;;;;;;;10.13;7.05;;;32.70;99.90;;;;;;5099367;28;20104;-67
2023/06/01 12:01:42;;;;;;;11.18;8.43;;;33.70;99.90;;;;;;5099561;28;20032;-68
2023/06/01 12:04:25;;;;;;;9.05;7.22;;;33.70;99.90;;;;;;5100218;28;20020;-68
2023/06/01 12:06:51;;;;;;;7.40;6.57;;;33.70;99.90;;;;;;5100111;28;20052;-68
2023/06/01 12:09:20;;;;;;;8.73;6.82;;;33.80;99.90;;;;;;5100454;28;20054;-68
2023/06/01 12:11:46;;;;;;;8.25;5.82;;;34.30;99.90;;;;;;5100241;28;20032;-69
2023/06/01 12:14:12;;;;;;;8.43;6.38;;;35.10;99.90;;;;;;5099979;28;20103;-69
2023/06/01 12:17:00;;;;;;;8.80;5.85;;;35.80;99.90;;;;;;5099948;28;20047;-69
2023/06/01 12:19:28;;;;;;;10.23;5.32;;;37.00;99.90;;;;;;5100021;28;20199;-69
2023/06/01 12:21:55;;;;;;;6.85;5.45;;;36.90;99.90;;;;;;5099772;28;20305;-69
2023/06/01 12:24:30;;;;;;;7.28;5.80;;;36.40;99.90;;;;;;5100061;28;20047;-69
2023/06/01 12:26:58;;;;;;;6.90;5.90;;;34.90;99.90;;;;;;5099752;28;20059;-70
2023/06/01 12:29:38;;;;;;;11.07;6.35;;;33.40;99.90;;;;;;5099100;28;20039;-69
2023/06/01 12:32:05;;;;;;;8.80;5.50;;;34.10;99.90;;;;;;5099710;28;20099;-69
2023/06/01 12:34:31;;;;;;;6.15;5.15;;;34.50;99.90;;;;;;5099962;28;20395;-69
2023/06/01 12:36:57;;;;;;;7.32;4.65;;;33.90;99.90;;;;;;5082165;28;20040;-68
2023/06/01 12:39:36;;;;;;;8.15;4.40;;;33.70;99.90;;;;;;5099424;28;20044;-70
2023/06/01 12:42:05;;;;;;;6.25;4.50;;;34.80;99.90;;;;;;5082498;28;20457;-68
2023/06/01 12:44:32;;;;;;;10.90;4.50;;;35.00;99.90;;;;;;5099457;28;20122;-69
2023/06/01 12:47:00;;;;;;;9.40;4.43;;;35.00;99.90;;;;;;5099045;28;20100;-69
2023/06/01 12:49:27;;;;;;;8.43;4.97;;;35.50;99.90;;;;;;5099402;28;20028;-69
2023/06/01 12:51:53;;;;;;;5.70;4.35;;;35.70;99.90;;;;;;5099216;28;20372;-68
2023/06/01 12:54:19;;;;;;;4.85;4.35;;;36.20;99.90;;;;;;5099307;28;20046;-68
2023/06/01 12:56:48;;;;;;;6.43;4.78;;;37.20;99.90;;;;;;5099210;28;20399;-69
2023/06/01 12:59:15;;;;;;;5.35;4.82;;;37.10;99.90;;;;;;5099146;28;20038;-68
2023/06/01 13:01:40;;;;;;;8.15;4.40;;;36.60;99.90;;;;;;5099433;28;20032;-69
2023/06/01 13:04:08;;;;;;;7.07;4.68;;;37.10;99.90;;;;;;5098474;28;20153;-69
2023/06/01 13:06:37;;;;;;;7.35;4.40;;;37.50;99.90;;;;;;5099245;28;20039;-69
2023/06/01 13:09:03;;;;;;;8.45;4.38;;;38.20;99.90;;;;;;5098392;28;20127;-68
2023/06/01 13:11:29;;;;;;;7.10;4.75;;;37.30;99.90;;;;;;5099205;28;20095;-68
2023/06/01 13:13:56;;;;;;;8.05;4.47;;;38.30;99.90;;;;;;5098259;28;20051;-69
2023/06/01 13:16:23;;;;;;;5.65;4.55;;;38.40;99.90;;;;;;5098849;28;20035;-68
2023/06/01 13:18:50;;;;;;;5.72;4.25;;;38.80;99.90;;;;;;5098038;28;20043;-67